Time;durP1;ratioP1;P1;durP2;ratioP2;P2;SDS_P1;SDS_P2;PMS_P1;PMS_P2;Temp;Humidity;BMP_temperature;BMP_pressure;BME280_temperature;BME280_humidity;BME280_pressure;Samples;Min_cycle;Max_cycle;Signal;HPM_P1;HPM_P2
2021/08/02 00:12:51;;;;;;;2.93;2.63;;;15.40;99.90;;;;;;4995216;28;20482;-82
2021/08/02 00:15:31;;;;;;;3.47;3.27;;;15.50;99.90;;;;;;4997211;28;20432;-82
2021/08/02 00:21:40;;;;;;;3.13;2.90;;;15.50;99.90;;;;;;4937503;29;20483;-82
2021/08/02 00:24:25;;;;;;;2.60;2.40;;;15.60;99.90;;;;;;4937376;29;20445;-82
2021/08/02 00:27:14;;;;;;;2.90;2.70;;;15.50;99.90;;;;;;4977785;29;20467;-82
2021/08/02 00:30:30;;;;;;;;;;;;;;;;;;;;;
2021/08/02 00:32:58;;;;;;;6.80;3.30;;;15.50;99.90;;;;;;4973840;29;20492;-83
2021/08/02 00:42:40;;;;;;;4.00;3.20;;;15.30;99.90;;;;;;4968734;29;20527;-83
2021/08/02 00:45:14;;;;;;;2.50;2.40;;;15.30;99.90;;;;;;4970609;29;20476;-83
2021/08/02 00:47:46;;;;;;;3.37;3.13;;;15.40;99.90;;;;;;4971447;29;20495;-85
2021/08/02 00:50:16;;;;;;;2.60;2.40;;;15.30;99.90;;;;;;4970853;29;20492;-84
2021/08/02 00:52:53;;;;;;;3.87;3.57;;;15.30;99.90;;;;;;4970118;29;20852;-84
2021/08/02 00:55:21;;;;;;;3.70;3.43;;;15.30;99.90;;;;;;4970575;29;20449;-83
2021/08/02 00:57:49;;;;;;;3.30;3.00;;;15.30;99.90;;;;;;4971041;29;20481;-84
2021/08/02 01:00:19;;;;;;;4.10;3.40;;;15.30;99.90;;;;;;4970311;29;20471;-84
2021/08/02 01:02:49;;;;;;;4.00;3.50;;;15.30;99.90;;;;;;4970704;29;20448;-85
2021/08/02 01:05:17;;;;;;;2.90;2.60;;;15.30;99.90;;;;;;4970846;29;20453;-85
2021/08/02 01:07:47;;;;;;;3.83;3.37;;;15.30;99.90;;;;;;4971199;29;20548;-85
2021/08/02 01:10:15;;;;;;;3.23;3.03;;;15.40;99.90;;;;;;4970868;29;20480;-84
2021/08/02 01:12:46;;;;;;;8.60;3.80;;;15.30;99.90;;;;;;4971258;29;20449;-85
2021/08/02 01:15:14;;;;;;;3.00;2.83;;;15.30;99.90;;;;;;4970919;29;20484;-84
2021/08/02 01:17:43;;;;;;;3.13;2.83;;;15.40;99.90;;;;;;4971065;29;20820;-85
2021/08/02 01:20:12;;;;;;;3.50;3.30;;;15.30;99.90;;;;;;4970550;28;20832;-84
2021/08/02 01:22:42;;;;;;;3.30;3.00;;;15.40;99.90;;;;;;4970197;29;20449;-84
2021/08/02 01:25:55;;;;;;;2.70;2.50;;;15.50;99.90;;;;;;4971858;29;20480;-84
2021/08/02 01:29:01;;;;;;;3.20;3.00;;;15.60;99.90;;;;;;4972487;29;20446;-85
2021/08/02 01:31:28;;;;;;;3.70;3.10;;;15.60;99.90;;;;;;4971360;29;20482;-84
2021/08/02 01:33:54;;;;;;;2.67;2.13;;;15.60;99.90;;;;;;4970687;29;20464;-84
2021/08/02 01:36:21;;;;;;;4.70;2.70;;;15.70;99.90;;;;;;4970837;29;20450;-84
2021/08/02 01:38:50;;;;;;;3.17;2.70;;;15.70;99.90;;;;;;4970060;29;20448;-84
2021/08/02 01:41:17;;;;;;;2.60;2.40;;;15.70;99.90;;;;;;4970915;29;20697;-84
2021/08/02 01:43:44;;;;;;;2.87;2.67;;;15.80;99.90;;;;;;4970560;29;20433;-84
2021/08/02 01:46:17;;;;;;;3.90;2.77;;;15.80;99.90;;;;;;4970320;29;20834;-85
2021/08/02 01:49:01;;;;;;;2.97;2.77;;;15.80;99.90;;;;;;4970826;29;20456;-84
2021/08/02 01:51:35;;;;;;;4.37;2.37;;;15.80;99.90;;;;;;4970049;29;20845;-85
2021/08/02 01:54:42;;;;;;;2.77;2.57;;;15.80;99.90;;;;;;4970316;29;20453;-85
2021/08/02 01:57:20;;;;;;;2.50;2.30;;;15.90;99.90;;;;;;4970392;29;20437;-84
2021/08/02 01:59:52;;;;;;;2.90;2.20;;;15.80;99.90;;;;;;4970223;29;20471;-84
2021/08/02 02:02:20;;;;;;;3.03;2.87;;;15.80;99.90;;;;;;4969805;29;20461;-85
2021/08/02 02:04:53;;;;;;;3.03;2.83;;;15.90;99.90;;;;;;4969995;29;20899;-84
2021/08/02 02:07:21;;;;;;;3.20;2.90;;;15.90;99.90;;;;;;4969826;29;20445;-84
2021/08/02 02:09:52;;;;;;;4.50;2.93;;;15.90;99.90;;;;;;4968919;29;20506;-84
2021/08/02 02:12:19;;;;;;;3.53;2.80;;;15.80;99.90;;;;;;4970874;29;20452;-84
2021/08/02 02:14:48;;;;;;;3.40;3.10;;;15.70;99.90;;;;;;4970519;29;20456;-85
2021/08/02 02:17:26;;;;;;;4.27;3.07;;;15.80;99.90;;;;;;4970612;29;20526;-84
2021/08/02 02:20:00;;;;;;;4.20;3.60;;;15.80;99.90;;;;;;4969462;29;20479;-84
2021/08/02 02:22:29;;;;;;;3.50;3.20;;;15.90;99.90;;;;;;4970203;29;20476;-85
2021/08/02 02:24:59;;;;;;;3.27;2.97;;;15.80;99.90;;;;;;4970579;29;20451;-83
2021/08/02 02:27:26;;;;;;;2.50;2.30;;;15.90;99.90;;;;;;4970383;29;20453;-83
2021/08/02 02:29:54;;;;;;;3.80;2.87;;;15.90;99.90;;;;;;4970834;29;20516;-84
2021/08/02 02:32:21;;;;;;;3.03;2.83;;;15.90;99.90;;;;;;4969110;28;20464;-84
2021/08/02 02:34:48;;;;;;;4.30;3.03;;;15.90;99.90;;;;;;4970377;29;20457;-84
2021/08/02 02:37:17;;;;;;;6.40;3.43;;;15.90;99.90;;;;;;4970918;29;20461;-85
2021/08/02 02:39:44;;;;;;;3.00;2.80;;;15.90;99.90;;;;;;4969897;29;20845;-85
2021/08/02 02:42:12;;;;;;;3.03;2.80;;;15.80;99.90;;;;;;4969495;29;20460;-84
2021/08/02 02:44:40;;;;;;;3.67;2.93;;;15.60;99.90;;;;;;4970090;29;20442;-85
2021/08/02 02:47:08;;;;;;;3.57;3.27;;;15.60;99.90;;;;;;4969800;29;20453;-84
2021/08/02 02:49:37;;;;;;;2.50;2.30;;;15.60;99.90;;;;;;4970039;29;20478;-84
2021/08/02 02:52:06;;;;;;;3.07;2.83;;;15.50;99.90;;;;;;4972379;29;20441;-85
2021/08/02 02:54:33;;;;;;;3.07;2.77;;;15.60;99.90;;;;;;4975666;29;20441;-84
2021/08/02 02:57:01;;;;;;;3.40;2.77;;;15.60;99.90;;;;;;4971720;29;20448;-84
2021/08/02 02:59:29;;;;;;;3.90;2.80;;;15.60;99.90;;;;;;4962100;29;20548;-84
2021/08/02 03:02:00;;;;;;;3.03;2.73;;;15.60;99.90;;;;;;4961724;29;20453;-85
2021/08/02 03:04:32;;;;;;;6.03;2.90;;;15.60;99.90;;;;;;4962181;29;20453;-85
2021/08/02 03:07:00;;;;;;;3.80;3.50;;;15.60;99.90;;;;;;4962791;29;20441;-84
2021/08/02 03:09:32;;;;;;;3.07;2.87;;;15.60;99.90;;;;;;4962134;29;20448;-84
2021/08/02 03:11:59;;;;;;;3.17;2.97;;;15.60;99.90;;;;;;4962009;29;20468;-85
2021/08/02 03:14:26;;;;;;;3.40;2.93;;;15.70;99.90;;;;;;4962770;29;20463;-84
2021/08/02 03:16:54;;;;;;;4.13;3.03;;;15.70;99.90;;;;;;4962611;29;20457;-85
2021/08/02 03:19:21;;;;;;;3.83;3.40;;;15.70;99.90;;;;;;4962561;29;20463;-84
2021/08/02 03:21:47;;;;;;;3.20;3.00;;;15.70;99.90;;;;;;4962499;29;20553;-84
2021/08/02 03:24:21;;;;;;;2.87;2.60;;;15.70;99.90;;;;;;4962602;29;20467;-85
2021/08/02 03:26:55;;;;;;;3.13;2.83;;;15.80;99.90;;;;;;4967527;29;20456;-84
2021/08/02 03:29:33;;;;;;;3.10;2.90;;;15.80;99.90;;;;;;4969015;29;20460;-85
2021/08/02 03:32:06;;;;;;;2.73;2.53;;;15.70;99.90;;;;;;4968601;29;20454;-85
2021/08/02 03:34:35;;;;;;;4.33;3.93;;;15.70;99.90;;;;;;4969652;29;20463;-83
2021/08/02 03:37:34;;;;;;;4.40;3.03;;;15.70;99.90;;;;;;4969724;29;20467;-84
2021/08/02 03:40:14;;;;;;;3.63;2.90;;;15.70;99.90;;;;;;4920357;29;20481;-85
2021/08/02 03:46:09;;;;;;;3.53;3.23;;;15.60;99.90;;;;;;4972493;28;20597;-84
2021/08/02 03:49:08;;;;;;;5.17;3.30;;;15.50;99.90;;;;;;4971045;29;20519;-85
2021/08/02 03:52:06;;;;;;;3.83;3.40;;;15.60;99.90;;;;;;4961941;29;20520;-85
2021/08/02 03:54:54;;;;;;;2.63;2.43;;;15.60;99.90;;;;;;4973177;29;20463;-84
2021/08/02 04:01:06;;;;;;;3.90;3.60;;;15.70;99.90;;;;;;4962153;29;20488;-84
2021/08/02 04:03:57;;;;;;;3.07;2.77;;;15.70;99.90;;;;;;4957442;29;20867;-84
2021/08/02 04:06:39;;;;;;;3.83;3.57;;;15.70;99.90;;;;;;4973130;29;20482;-85
2021/08/02 04:09:12;;;;;;;2.60;2.40;;;15.50;99.90;;;;;;4972633;29;20456;-83
2021/08/02 04:11:41;;;;;;;2.50;2.30;;;15.50;99.90;;;;;;4972149;29;20488;-84
2021/08/02 04:14:09;;;;;;;4.20;3.43;;;15.50;99.90;;;;;;4972452;29;20455;-84
2021/08/02 04:16:59;;;;;;;;;;;;;;;;;;;;;
2021/08/02 04:19:31;;;;;;;2.60;2.40;;;15.70;99.90;;;;;;4971030;29;20488;-83
2021/08/02 04:24:40;;;;;;;3.23;3.03;;;15.70;99.90;;;;;;4971184;29;20504;-84
2021/08/02 04:27:25;;;;;;;2.57;2.37;;;15.70;99.90;;;;;;4972501;29;20449;-85
2021/08/02 04:30:01;;;;;;;5.50;3.27;;;15.80;99.90;;;;;;4973307;29;20473;-84
2021/08/02 04:32:45;;;;;;;;;;;;;;;;;;;;;
2021/08/02 04:35:15;;;;;;;4.03;3.27;;;15.90;99.90;;;;;;4972941;29;20467;-85
2021/08/02 04:37:42;;;;;;;3.00;2.80;;;15.90;99.90;;;;;;4973231;29;20457;-83
2021/08/02 04:40:09;;;;;;;3.00;2.50;;;15.90;99.90;;;;;;4972680;29;20473;-84
2021/08/02 04:42:37;;;;;;;3.90;2.77;;;15.90;99.90;;;;;;4971836;29;20454;-84
2021/08/02 04:45:04;;;;;;;4.20;3.10;;;15.90;99.90;;;;;;4971855;29;20464;-84
2021/08/02 04:47:46;;;;;;;4.43;2.50;;;15.90;99.90;;;;;;4971642;29;20441;-84
2021/08/02 04:50:25;;;;;;;2.60;2.40;;;15.80;99.90;;;;;;4971436;29;20471;-83
2021/08/02 04:52:52;;;;;;;3.60;3.40;;;15.80;99.90;;;;;;4971803;29;20474;-84
2021/08/02 04:55:19;;;;;;;3.60;3.10;;;15.80;99.90;;;;;;4971072;28;20477;-85
2021/08/02 04:57:46;;;;;;;2.67;2.43;;;15.80;99.90;;;;;;4972031;29;20469;-84
2021/08/02 05:00:13;;;;;;;3.13;2.93;;;15.90;99.90;;;;;;4971246;29;20491;-83
2021/08/02 05:02:40;;;;;;;6.30;2.80;;;15.90;99.90;;;;;;4971183;29;20753;-84
2021/08/02 05:05:08;;;;;;;3.20;2.93;;;15.80;99.90;;;;;;4971950;29;20454;-84
2021/08/02 05:07:36;;;;;;;3.63;3.33;;;15.80;99.90;;;;;;4972118;29;20450;-85
2021/08/02 05:10:03;;;;;;;4.30;3.60;;;15.70;99.90;;;;;;4970953;29;20468;-85
2021/08/02 05:12:31;;;;;;;3.57;3.27;;;15.70;99.90;;;;;;4971323;29;20489;-84
2021/08/02 05:15:04;;;;;;;2.90;2.60;;;15.80;99.90;;;;;;4971659;29;20793;-85
2021/08/02 05:17:30;;;;;;;5.57;2.77;;;15.90;99.90;;;;;;4971871;29;20447;-85
2021/08/02 05:19:58;;;;;;;2.50;2.30;;;15.90;99.90;;;;;;4971689;29;20517;-83
2021/08/02 05:22:28;;;;;;;2.87;2.50;;;15.90;99.90;;;;;;4971115;29;20484;-85
2021/08/02 05:25:15;;;;;;;3.60;3.20;;;16.00;99.90;;;;;;4971918;29;20480;-86
2021/08/02 05:28:20;;;;;;;;;;;;;;;;;;;;;
2021/08/02 05:31:09;;;;;;;4.17;3.50;;;16.10;99.90;;;;;;4892757;29;20575;-85
2021/08/02 05:34:05;;;;;;;2.67;2.47;;;16.10;99.90;;;;;;4937008;29;20488;-86
2021/08/02 05:40:44;;;;;;;;;;;;;;;;;;;;;
2021/08/02 05:50:05;;;;;;;;;;;;;;;;;;;;;
2021/08/02 05:56:13;;;;;;;4.53;4.13;;;16.00;99.90;;;;;;4890178;29;20454;-85
2021/08/02 05:59:20;;;;;;;2.37;2.17;;;16.10;99.90;;;;;;4891771;29;21004;-85
2021/08/02 06:02:02;;;;;;;3.27;2.97;;;16.00;99.90;;;;;;4970404;29;20520;-84
2021/08/02 06:07:32;;;;;;;5.23;3.03;;;16.00;99.90;;;;;;4968723;28;20445;-86
2021/08/02 06:10:02;;;;;;;3.07;2.83;;;15.90;99.90;;;;;;4971027;29;20477;-85
2021/08/02 06:12:29;;;;;;;3.70;2.60;;;15.90;99.90;;;;;;4971007;29;20484;-85
2021/08/02 06:14:57;;;;;;;3.10;2.80;;;15.90;99.90;;;;;;4971507;29;20846;-85
2021/08/02 06:17:23;;;;;;;4.07;2.93;;;16.00;99.90;;;;;;4970989;29;20453;-85
2021/08/02 06:19:50;;;;;;;2.80;2.50;;;16.10;99.90;;;;;;4971060;29;20476;-85
2021/08/02 06:22:17;;;;;;;3.23;2.87;;;16.20;99.90;;;;;;4969611;29;20455;-85
2021/08/02 06:24:47;;;;;;;4.80;2.80;;;16.20;99.90;;;;;;4970543;29;20463;-85
2021/08/02 06:27:31;;;;;;;3.80;3.17;;;16.20;99.90;;;;;;4970260;29;20457;-85
2021/08/02 06:30:19;;;;;;;4.97;3.40;;;16.40;99.90;;;;;;4970814;29;20476;-85
2021/08/02 06:41:44;;;;;;;2.70;2.50;;;16.90;99.90;;;;;;4967978;29;20470;-85
2021/08/02 06:44:39;;;;;;;3.63;2.77;;;16.90;99.90;;;;;;4968378;29;20457;-85
2021/08/02 06:53:08;;;;;;;5.00;2.33;;;17.20;99.90;;;;;;4970831;29;20953;-85
2021/08/02 06:55:39;;;;;;;3.63;2.27;;;17.40;99.90;;;;;;4969808;29;20531;-85
2021/08/02 07:01:24;;;;;;;2.40;2.20;;;17.50;99.90;;;;;;4968741;29;20537;-83
2021/08/02 07:04:22;;;;;;;2.73;2.43;;;17.50;99.90;;;;;;4970105;29;20453;-84
2021/08/02 07:10:05;;;;;;;3.07;2.27;;;17.80;99.90;;;;;;4956793;29;20451;-84
2021/08/02 07:12:58;;;;;;;2.90;2.70;;;17.90;99.90;;;;;;4970053;29;20503;-84
2021/08/02 07:15:51;;;;;;;2.27;2.07;;;18.00;99.90;;;;;;4891996;29;20534;-85
2021/08/02 07:18:22;;;;;;;3.43;2.37;;;18.10;99.90;;;;;;4969675;28;20473;-85
2021/08/02 07:21:00;;;;;;;5.40;2.40;;;18.40;99.90;;;;;;4973679;29;20475;-85
2021/08/02 07:26:50;;;;;;;2.33;2.23;;;18.50;99.90;;;;;;4959352;29;20453;-85
2021/08/02 07:32:43;;;;;;;2.80;2.27;;;18.50;99.90;;;;;;4969696;29;20522;-85
2021/08/02 07:35:14;;;;;;;2.73;2.50;;;18.70;99.90;;;;;;4973481;29;20535;-85
2021/08/02 07:37:43;;;;;;;2.90;1.90;;;18.70;99.90;;;;;;4973167;29;20445;-85
2021/08/02 07:40:11;;;;;;;1.80;1.70;;;18.90;99.90;;;;;;4973179;29;20475;-85
2021/08/02 07:42:40;;;;;;;2.40;2.30;;;19.00;99.90;;;;;;4973233;29;20454;-85
2021/08/02 07:45:08;;;;;;;2.77;2.00;;;19.20;99.90;;;;;;4973022;29;20962;-85
2021/08/02 07:47:34;;;;;;;2.33;2.20;;;19.30;99.90;;;;;;4972740;29;20516;-83
2021/08/02 07:53:25;;;;;;;3.23;1.90;;;19.50;99.90;;;;;;4971357;29;20519;-85
2021/08/02 07:56:34;;;;;;;;;;;;;;;;;;;;;
2021/08/02 08:02:32;;;;;;;2.23;2.13;;;19.80;99.90;;;;;;4969047;29;20451;-85
2021/08/02 08:05:03;;;;;;;2.20;2.00;;;19.90;99.90;;;;;;4972323;29;20511;-84
2021/08/02 08:07:59;;;;;;;;;;;;;;;;;;;;;
2021/08/02 08:11:23;;;;;;;1.70;1.60;;;19.70;99.90;;;;;;4972225;29;21033;-85
2021/08/02 08:18:01;;;;;;;;;;;;;;;;;;;;;
2021/08/02 08:21:03;;;;;;;2.40;2.20;;;19.80;99.90;;;;;;4968812;29;20966;-84
2021/08/02 08:27:04;;;;;;;2.23;2.10;;;20.00;99.90;;;;;;4885641;29;20468;-85
2021/08/02 08:29:41;;;;;;;2.37;2.27;;;20.20;99.90;;;;;;4972106;29;20442;-84
2021/08/02 08:32:08;;;;;;;2.10;1.77;;;20.30;99.90;;;;;;4970649;29;20567;-85
2021/08/02 08:34:37;;;;;;;1.90;1.70;;;20.40;99.90;;;;;;4972195;29;20456;-85
2021/08/02 08:54:17;;;;;;;2.00;1.70;;;20.80;99.90;;;;;;4828698;29;20535;-85
2021/08/02 09:10:06;;;;;;;1.43;1.33;;;20.80;97.90;;;;;;4827816;29;20454;-84
2021/08/02 09:19:26;;;;;;;2.10;2.00;;;20.30;99.90;;;;;;4850164;29;20454;-84
2021/08/02 09:28:43;;;;;;;2.23;2.13;;;20.50;99.90;;;;;;4891711;29;20472;-85
2021/08/02 09:31:59;;;;;;;2.80;2.07;;;20.60;99.90;;;;;;4892033;29;20492;-85
2021/08/02 10:04:24;;;;;;;;;;;;;;;;;;;;;
2021/08/02 10:27:16;;;;;;;2.37;2.17;;;23.10;95.00;;;;;;4798216;30;20472;-85
2021/08/02 13:57:07;;;;;;;1.50;1.40;;;30.20;68.40;;;;;;4841061;28;20503;-84
2021/08/02 13:59:34;;;;;;;1.20;1.20;;;30.10;66.40;;;;;;4976374;28;20472;-85
2021/08/02 14:02:01;;;;;;;1.77;1.47;;;30.50;66.50;;;;;;4976003;28;20512;-84
2021/08/02 14:04:28;;;;;;;1.60;1.50;;;31.20;63.40;;;;;;4976599;28;20485;-83
2021/08/02 14:06:56;;;;;;;1.50;1.40;;;31.40;62.60;;;;;;4975918;28;20513;-85
2021/08/02 14:09:23;;;;;;;1.60;1.50;;;31.20;60.80;;;;;;4976300;28;20562;-85
2021/08/02 14:11:59;;;;;;;1.77;1.67;;;31.20;60.30;;;;;;4975157;28;20456;-85
2021/08/02 14:14:30;;;;;;;1.50;1.40;;;30.30;62.00;;;;;;4976548;28;20454;-85
2021/08/02 14:17:03;;;;;;;1.60;1.50;;;28.90;62.20;;;;;;4973895;28;20446;-84
2021/08/02 14:19:33;;;;;;;1.93;1.70;;;27.50;65.10;;;;;;4971355;28;20490;-84
2021/08/02 14:22:02;;;;;;;2.27;1.40;;;26.40;69.30;;;;;;4971325;28;20464;-84
2021/08/02 14:24:30;;;;;;;2.00;1.83;;;25.70;74.50;;;;;;4973228;28;20497;-84
2021/08/02 14:27:01;;;;;;;4.40;1.80;;;25.50;79.10;;;;;;4973376;28;20512;-84
2021/08/02 14:29:32;;;;;;;2.50;2.07;;;25.30;81.60;;;;;;4961668;28;21013;-84
2021/08/02 14:34:52;;;;;;;1.60;1.33;;;24.00;94.50;;;;;;4958302;28;20463;-83
2021/08/02 15:22:07;;;;;;;1.57;1.47;;;23.50;91.10;;;;;;4684450;30;20462;-85
2021/08/02 15:24:43;;;;;;;2.33;2.13;;;23.00;92.20;;;;;;4810460;29;20493;-85
2021/08/02 15:27:13;;;;;;;1.30;1.20;;;22.30;92.40;;;;;;4932086;28;20968;-85
2021/08/02 15:29:42;;;;;;;1.90;1.80;;;22.00;91.90;;;;;;4959811;28;20458;-84
2021/08/02 15:32:11;;;;;;;2.50;1.60;;;21.80;92.80;;;;;;4959384;28;20470;-85
2021/08/02 15:34:40;;;;;;;1.70;1.60;;;21.80;93.00;;;;;;4959092;28;20874;-84
2021/08/02 15:37:10;;;;;;;1.80;1.70;;;21.70;92.60;;;;;;4960102;28;20500;-84
2021/08/02 15:39:41;;;;;;;1.00;1.00;;;21.40;93.00;;;;;;4960054;28;20477;-84
2021/08/02 15:42:09;;;;;;;1.50;1.40;;;21.20;90.60;;;;;;4964013;28;20520;-84
2021/08/02 15:44:35;;;;;;;1.40;1.30;;;21.10;90.80;;;;;;4964433;28;20496;-84
2021/08/02 15:47:02;;;;;;;1.23;1.13;;;21.20;92.30;;;;;;4964440;28;20536;-84
2021/08/02 17:04:31;;;;;;;1.53;1.43;;;20.20;95.30;;;;;;4854998;28;20508;-84
2021/08/02 17:06:58;;;;;;;1.73;1.63;;;19.90;96.00;;;;;;4963283;28;20467;-84
2021/08/02 17:09:27;;;;;;;1.47;1.37;;;19.70;96.30;;;;;;4962696;28;20886;-84
2021/08/02 17:11:54;;;;;;;1.80;1.40;;;19.60;97.10;;;;;;4962498;28;20438;-84
2021/08/02 17:14:20;;;;;;;1.07;1.07;;;19.60;97.10;;;;;;4962674;28;20455;-84
2021/08/02 17:16:47;;;;;;;2.47;1.97;;;19.50;97.70;;;;;;4962954;28;20463;-84
2021/08/02 17:19:14;;;;;;;1.60;1.50;;;19.30;98.20;;;;;;4962700;28;20448;-84
2021/08/02 17:21:42;;;;;;;1.70;1.60;;;19.20;98.90;;;;;;4962830;28;20467;-84
2021/08/02 17:24:09;;;;;;;2.17;1.97;;;19.10;99.10;;;;;;4962582;28;20509;-84
2021/08/02 17:26:36;;;;;;;2.30;1.63;;;19.10;99.30;;;;;;4963904;28;20517;-84
2021/08/02 17:29:03;;;;;;;1.80;1.70;;;18.90;99.80;;;;;;4962782;28;20463;-84
2021/08/02 17:31:30;;;;;;;1.47;1.37;;;18.80;99.90;;;;;;4963256;28;20448;-84
2021/08/02 17:33:57;;;;;;;1.40;1.30;;;18.80;99.90;;;;;;4962373;28;20454;-84
2021/08/02 17:36:23;;;;;;;2.03;1.93;;;18.80;99.90;;;;;;4963062;28;20963;-84
2021/08/02 17:38:52;;;;;;;1.37;1.20;;;18.70;99.90;;;;;;4963424;28;20452;-84
2021/08/02 17:41:18;;;;;;;1.60;1.43;;;18.80;99.90;;;;;;4963282;28;20483;-84
2021/08/02 17:43:45;;;;;;;1.10;1.10;;;18.80;99.90;;;;;;4964619;28;20502;-84
2021/08/02 17:46:12;;;;;;;1.60;1.50;;;18.70;99.90;;;;;;4964830;28;20463;-84
2021/08/02 17:48:39;;;;;;;1.73;1.50;;;18.60;99.90;;;;;;4965063;28;20466;-84
2021/08/02 17:51:06;;;;;;;1.50;1.40;;;18.60;99.90;;;;;;4964530;28;20475;-84
2021/08/02 17:53:32;;;;;;;1.53;1.43;;;18.70;99.90;;;;;;4964412;28;20459;-84
2021/08/02 17:56:03;;;;;;;2.90;1.80;;;18.80;99.90;;;;;;4965020;28;20823;-84
2021/08/02 17:58:30;;;;;;;1.53;1.43;;;19.00;99.90;;;;;;4964055;28;20835;-84
2021/08/02 18:00:59;;;;;;;1.43;1.33;;;19.20;99.90;;;;;;4964539;28;20570;-84
2021/08/02 18:03:25;;;;;;;2.30;1.70;;;19.40;99.90;;;;;;4963456;28;20547;-84
2021/08/02 18:05:53;;;;;;;1.27;1.23;;;19.50;99.90;;;;;;4962879;28;20440;-84
2021/08/02 18:08:20;;;;;;;1.80;1.70;;;19.50;99.60;;;;;;4963495;28;20518;-84
2021/08/02 18:10:49;;;;;;;2.90;1.60;;;19.60;99.90;;;;;;4962733;28;20484;-84
2021/08/02 18:13:17;;;;;;;1.80;1.67;;;19.60;99.50;;;;;;4962708;28;20500;-84
2021/08/02 18:15:44;;;;;;;1.60;1.50;;;19.70;99.50;;;;;;4963171;28;20470;-84
2021/08/02 18:18:11;;;;;;;2.20;1.57;;;19.90;99.80;;;;;;4963154;28;20466;-84
2021/08/02 18:20:39;;;;;;;2.57;1.90;;;19.90;99.30;;;;;;4962352;28;20475;-84
2021/08/02 18:23:06;;;;;;;1.73;1.63;;;19.90;99.30;;;;;;4961913;28;20460;-84
2021/08/02 18:25:37;;;;;;;2.00;1.90;;;19.80;99.70;;;;;;4962298;28;20504;-84
2021/08/02 18:28:04;;;;;;;2.00;1.87;;;20.00;99.90;;;;;;4962396;28;20489;-84
2021/08/02 18:30:32;;;;;;;1.50;1.40;;;19.90;99.90;;;;;;4962113;28;20479;-84
2021/08/02 18:32:59;;;;;;;1.40;1.30;;;19.90;99.90;;;;;;4962078;28;20512;-84
2021/08/02 18:35:25;;;;;;;2.20;1.63;;;19.80;99.90;;;;;;4962071;28;20463;-84
2021/08/02 18:37:52;;;;;;;2.00;1.30;;;19.70;99.90;;;;;;4962990;28;20486;-84
2021/08/02 18:40:19;;;;;;;4.63;1.70;;;19.60;99.90;;;;;;4974718;28;20490;-82
2021/08/02 18:42:46;;;;;;;1.90;1.77;;;19.60;99.90;;;;;;4975272;28;20486;-83
2021/08/02 18:45:13;;;;;;;1.53;1.33;;;19.30;99.90;;;;;;4965873;28;20491;-84
2021/08/02 18:47:41;;;;;;;1.60;1.50;;;19.20;99.90;;;;;;4962736;28;20463;-84
2021/08/02 18:50:09;;;;;;;1.70;1.60;;;19.00;99.90;;;;;;4961907;28;20635;-83
2021/08/02 18:52:36;;;;;;;2.83;1.73;;;18.90;99.90;;;;;;4961911;28;20853;-84
2021/08/02 18:55:03;;;;;;;2.37;2.17;;;18.80;99.90;;;;;;4961383;28;20464;-84
2021/08/02 18:57:31;;;;;;;2.00;1.87;;;18.60;99.90;;;;;;4963026;28;20845;-84
2021/08/02 19:05:54;;;;;;;2.03;1.57;;;18.40;99.90;;;;;;4945515;28;20516;-83
2021/08/02 19:08:21;;;;;;;2.10;2.00;;;18.20;99.90;;;;;;4962283;28;20875;-84
2021/08/02 19:10:48;;;;;;;1.73;1.63;;;18.10;99.90;;;;;;4962366;28;20486;-84
2021/08/02 19:13:15;;;;;;;2.17;1.80;;;18.10;99.90;;;;;;4961938;28;20452;-84
2021/08/02 19:15:46;;;;;;;2.30;2.10;;;18.00;99.90;;;;;;4963712;28;20454;-84
2021/08/02 19:18:25;;;;;;;2.43;1.60;;;17.90;99.90;;;;;;4966452;28;20462;-84
2021/08/02 19:20:55;;;;;;;4.40;1.70;;;17.80;99.90;;;;;;4968115;28;20485;-84
2021/08/02 19:23:23;;;;;;;1.80;1.70;;;17.80;99.90;;;;;;4967632;28;20458;-84
2021/08/02 19:25:52;;;;;;;2.93;2.70;;;17.80;99.90;;;;;;4968594;28;20485;-85
2021/08/02 19:39:06;;;;;;;1.87;1.77;;;17.60;99.90;;;;;;4880525;28;21028;-84
2021/08/02 19:51:47;;;;;;;;;;;;;;;;;;;;;
2021/08/02 20:13:48;;;;;;;2.00;1.90;;;16.70;99.90;;;;;;4925469;28;20465;-84
2021/08/02 20:16:14;;;;;;;2.07;1.87;;;16.60;99.90;;;;;;4965353;28;20452;-84
2021/08/02 20:18:41;;;;;;;2.30;2.20;;;16.50;99.90;;;;;;4965567;28;20448;-84
2021/08/02 20:21:14;;;;;;;2.90;2.70;;;16.40;99.90;;;;;;4965491;28;20477;-84
2021/08/02 20:23:50;;;;;;;2.00;1.90;;;16.30;99.90;;;;;;4965073;28;20451;-84
2021/08/02 20:26:21;;;;;;;2.83;2.63;;;16.20;99.90;;;;;;4965061;28;20488;-85
2021/08/02 20:28:57;;;;;;;2.70;2.50;;;16.10;99.90;;;;;;4974050;28;20444;-86
2021/08/02 20:31:46;;;;;;;2.63;2.43;;;16.10;99.90;;;;;;4973706;28;20544;-85
2021/08/02 20:50:38;;;;;;;3.70;3.40;;;16.10;99.90;;;;;;4766429;29;20474;-85
2021/08/02 21:22:57;;;;;;;3.80;3.50;;;15.70;99.90;;;;;;4663611;30;20538;-85
2021/08/02 22:36:54;;;;;;;;;;;;;;;;;;;;;
2021/08/02 22:46:53;;;;;;;;;;;;;;;;;;;;;
2021/08/02 22:56:40;;;;;;;;;;;;;;;;;;;;;
2021/08/02 23:00:15;;;;;;;;;;;;;;;;;;;;;
2021/08/02 23:02:49;;;;;;;2.87;2.13;;;14.90;99.90;;;;;;4958440;28;20548;-85
2021/08/02 23:05:21;;;;;;;3.37;3.17;;;14.90;99.90;;;;;;4962657;28;20448;-86
2021/08/02 23:07:51;;;;;;;2.00;1.90;;;14.90;99.90;;;;;;4962635;28;20452;-85
2021/08/02 23:10:22;;;;;;;4.37;2.10;;;14.90;99.90;;;;;;4961986;28;20484;-86
2021/08/02 23:12:50;;;;;;;2.40;1.90;;;14.90;99.90;;;;;;4962812;28;20479;-85
2021/08/02 23:15:17;;;;;;;2.30;2.20;;;14.90;99.90;;;;;;4962663;28;20907;-85
2021/08/02 23:17:47;;;;;;;2.40;2.20;;;14.90;99.90;;;;;;4961897;28;20465;-85
2021/08/02 23:20:17;;;;;;;3.03;2.73;;;14.90;99.90;;;;;;4962678;28;20452;-85
2021/08/02 23:22:45;;;;;;;2.47;2.27;;;14.90;99.90;;;;;;4962244;28;20451;-85
2021/08/02 23:25:12;;;;;;;2.90;2.70;;;14.90;99.90;;;;;;4961520;28;20539;-85
2021/08/02 23:27:41;;;;;;;3.80;3.43;;;14.70;99.90;;;;;;4961985;28;20962;-85
2021/08/02 23:30:11;;;;;;;4.20;2.33;;;14.70;99.90;;;;;;4961529;28;20473;-85
2021/08/02 23:32:43;;;;;;;2.20;2.10;;;14.70;99.90;;;;;;4961450;28;20461;-84
2021/08/02 23:35:13;;;;;;;2.77;2.57;;;14.60;99.90;;;;;;4961931;28;20536;-85
2021/08/02 23:37:40;;;;;;;2.00;1.90;;;14.60;99.90;;;;;;4961687;28;20467;-85
2021/08/02 23:40:10;;;;;;;3.43;2.60;;;14.60;99.90;;;;;;4961478;28;20536;-85
2021/08/02 23:42:37;;;;;;;4.43;2.43;;;14.60;99.90;;;;;;4961436;28;20456;-85
2021/08/02 23:45:06;;;;;;;2.53;2.33;;;14.60;99.90;;;;;;4962043;28;20453;-85
2021/08/02 23:47:34;;;;;;;2.60;2.40;;;14.70;99.90;;;;;;4961775;28;20475;-86
2021/08/02 23:50:03;;;;;;;2.80;2.60;;;14.60;99.90;;;;;;4961869;28;20477;-85
2021/08/02 23:52:32;;;;;;;2.60;2.40;;;14.70;99.90;;;;;;4962112;28;20462;-85
2021/08/02 23:54:59;;;;;;;2.50;2.33;;;14.70;99.90;;;;;;4966270;28;20457;-85
2021/08/02 23:57:28;;;;;;;1.93;1.83;;;14.70;99.90;;;;;;4967075;28;20458;-85
2021/08/02 23:59:54;;;;;;;5.57;4.53;;;14.70;99.90;;;;;;4966209;28;20486;-85
